Time;durP1;ratioP1;P1;durP2;ratioP2;P2;SDS_P1;SDS_P2;PMS_P1;PMS_P2;Temp;Humidity;BMP_temperature;BMP_pressure;BME280_temperature;BME280_humidity;BME280_pressure;Samples;Min_cycle;Max_cycle;Signal;HPM_P1;HPM_P2
2023/06/19 00:00:43;;;;;;;;;;;21.60;59.50;;;;;;6091325;23;19913;-96
2023/06/19 00:03:33;;;;;;;;;;;21.60;59.40;;;;;;6071190;23;19914;-96
2023/06/19 00:06:07;;;;;;;;;;;22.10;59.60;;;;;;6073634;23;20114;-96
2023/06/19 00:08:41;;;;;;;;;;;21.50;59.50;;;;;;6095430;23;19914;-96
2023/06/19 00:11:30;;;;;;;;;;;21.50;59.50;;;;;;6096151;23;19910;-95
2023/06/19 00:14:14;;;;;;;;;;;21.60;59.60;;;;;;6096306;23;20342;-96
2023/06/19 00:16:43;;;;;;;;;;;21.50;59.60;;;;;;6074031;23;19965;-96
2023/06/19 00:19:28;;;;;;;;;;;21.50;59.50;;;;;;6095764;23;19976;-96
2023/06/19 00:21:57;;;;;;;;;;;21.50;59.50;;;;;;6094948;23;20307;-96
2023/06/19 00:24:28;;;;;;;;;;;21.50;59.60;;;;;;6094621;23;19917;-96
2023/06/19 00:26:54;;;;;;;;;;;21.90;59.80;;;;;;6095014;23;20239;-96
2023/06/19 00:29:21;;;;;;;;;;;21.50;59.80;;;;;;6095069;23;19914;-96
2023/06/19 00:31:58;;;;;;;;;;;21.50;59.90;;;;;;6071435;23;19958;-95
2023/06/19 00:34:33;;;;;;;;;;;21.40;59.80;;;;;;6072285;23;19988;-96
2023/06/19 00:39:52;;;;;;;;;;;21.50;60.00;;;;;;6095728;23;20342;-96
2023/06/19 00:42:38;;;;;;;;;;;21.50;60.10;;;;;;6094735;23;20286;-96
2023/06/19 00:45:05;;;;;;;;;;;21.50;60.20;;;;;;5984210;23;20506;-95
2023/06/19 00:47:42;;;;;;;;;;;21.50;60.50;;;;;;5982663;23;20336;-96
2023/06/19 00:50:18;;;;;;;;;;;21.50;60.60;;;;;;5961989;23;19911;-96
2023/06/19 00:53:12;;;;;;;;;;;21.40;60.50;;;;;;5984791;23;19966;-96
2023/06/19 00:56:19;;;;;;;;;;;21.40;60.50;;;;;;5874249;24;20346;-96
2023/06/19 00:58:44;;;;;;;;;;;21.40;60.60;;;;;;5896590;24;19920;-96
2023/06/19 01:01:12;;;;;;;;;;;21.40;60.80;;;;;;5874684;24;19912;-96
2023/06/19 01:07:24;;;;;;;;;;;21.40;60.80;;;;;;5816076;24;19966;-96
2023/06/19 01:09:58;;;;;;;;;;;21.40;60.80;;;;;;5768192;24;19913;-96
2023/06/19 01:12:51;;;;;;;;;;;21.40;61.00;;;;;;5746918;24;19967;-96
2023/06/19 01:15:22;;;;;;;;;;;21.40;61.00;;;;;;5746914;24;20000;-96
2023/06/19 01:18:07;;;;;;;;;;;21.40;61.00;;;;;;5746406;24;19917;-96
2023/06/19 01:20:59;;;;;;;;;;;21.40;61.00;;;;;;5747537;24;19919;-96
2023/06/19 01:23:33;;;;;;;;;;;21.40;61.20;;;;;;5869358;24;20331;-96
2023/06/19 01:26:16;;;;;;;;;;;21.40;61.20;;;;;;5847240;24;19912;-96
2023/06/19 01:29:04;;;;;;;;;;;21.40;61.30;;;;;;5827409;24;19923;-95
2023/06/19 01:31:33;;;;;;;;;;;21.40;61.40;;;;;;5857468;24;19955;-96
2023/06/19 01:34:19;;;;;;;;;;;21.40;61.40;;;;;;5905818;24;19911;-96
2023/06/19 01:37:05;;;;;;;;;;;21.40;61.50;;;;;;5927961;24;19946;-96
2023/06/19 01:39:48;;;;;;;;;;;21.40;61.50;;;;;;5930180;24;20333;-96
2023/06/19 01:42:33;;;;;;;;;;;21.40;61.70;;;;;;5910115;23;20271;-96
2023/06/19 01:45:06;;;;;;;;;;;21.40;61.50;;;;;;6016249;23;19905;-96
2023/06/19 01:47:50;;;;;;;;;;;21.40;61.70;;;;;;6096980;23;19962;-96
2023/06/19 01:50:36;;;;;;;;;;;21.30;61.50;;;;;;6068659;23;19909;-96
2023/06/19 01:53:02;;;;;;;;;;;21.30;61.50;;;;;;6096477;23;20319;-96
2023/06/19 01:55:28;;;;;;;;;;;21.40;61.80;;;;;;6096406;23;20036;-96
2023/06/19 01:58:01;;;;;;;;;;;21.30;61.80;;;;;;6070691;23;20335;-96
2023/06/19 02:01:04;;;;;;;;;;;21.30;61.70;;;;;;6070719;23;19925;-96
2023/06/19 02:03:30;;;;;;;;;;;21.30;61.90;;;;;;6071088;23;20350;-96
2023/06/19 02:06:21;;;;;;;;;;;21.30;61.90;;;;;;6071777;23;19910;-96
2023/06/19 02:09:05;;;;;;;;;;;21.30;62.00;;;;;;6067318;23;19910;-96
2023/06/19 02:11:31;;;;;;;;;;;21.30;62.10;;;;;;6072011;23;19998;-96
2023/06/19 02:13:56;;;;;;;;;;;21.30;62.10;;;;;;6071612;23;19909;-96
2023/06/19 02:16:22;;;;;;;;;;;21.30;61.90;;;;;;6070931;23;19909;-96
2023/06/19 02:18:51;;;;;;;;;;;21.30;62.00;;;;;;6070319;23;19906;-96
2023/06/19 02:21:23;;;;;;;;;;;21.30;62.00;;;;;;6070582;23;19905;-95
2023/06/19 02:23:50;;;;;;;;;;;21.30;62.00;;;;;;6095586;23;19960;-95
2023/06/19 02:26:19;;;;;;;;;;;21.30;62.20;;;;;;6071783;23;19906;-95
2023/06/19 02:29:10;;;;;;;;;;;21.30;62.30;;;;;;6073078;23;20406;-96
2023/06/19 02:31:42;;;;;;;;;;;21.30;62.20;;;;;;6068309;23;19972;-96
2023/06/19 02:34:15;;;;;;;;;;;21.30;62.10;;;;;;6072383;23;20365;-95
2023/06/19 02:36:58;;;;;;;;;;;21.30;62.10;;;;;;6072488;23;20365;-96
2023/06/19 02:39:32;;;;;;;;;;;21.30;61.90;;;;;;6095976;23;19913;-96
2023/06/19 02:42:17;;;;;;;;;;;21.30;62.10;;;;;;6071994;23;19963;-96
2023/06/19 02:44:43;;;;;;;;;;;21.30;62.30;;;;;;6096594;23;19906;-95
2023/06/19 02:47:19;;;;;;;;;;;21.30;62.20;;;;;;6094907;23;20040;-95
2023/06/19 02:49:48;;;;;;;;;;;21.30;62.30;;;;;;6071602;23;19910;-96
2023/06/19 02:52:23;;;;;;;;;;;21.30;62.30;;;;;;6095952;23;19905;-95
2023/06/19 02:54:48;;;;;;;;;;;21.30;62.50;;;;;;6096028;23;19905;-95
2023/06/19 02:57:29;;;;;;;;;;;21.30;62.40;;;;;;6095849;23;19960;-96
2023/06/19 03:00:05;;;;;;;;;;;21.30;62.50;;;;;;6095096;23;19906;-95
2023/06/19 03:02:31;;;;;;;;;;;21.30;62.30;;;;;;6071884;23;19945;-96
2023/06/19 03:05:15;;;;;;;;;;;21.30;62.50;;;;;;6046421;23;19920;-96
2023/06/19 03:07:46;;;;;;;;;;;21.30;62.30;;;;;;6071557;23;19956;-95
2023/06/19 03:10:15;;;;;;;;;;;21.20;62.10;;;;;;6047228;23;19996;-96
2023/06/19 03:12:40;;;;;;;;;;;21.20;62.00;;;;;;6071753;23;20339;-95
2023/06/19 03:15:38;;;;;;;;;;;21.30;61.90;;;;;;6075102;23;19905;-96
2023/06/19 03:18:26;;;;;;;;;;;21.30;61.80;;;;;;6073170;23;19913;-96
2023/06/19 03:21:15;;;;;;;;;;;21.30;61.80;;;;;;6073500;23;19912;-96
2023/06/19 03:23:47;;;;;;;;;;;21.30;61.80;;;;;;6071010;23;19976;-95
2023/06/19 03:26:13;;;;;;;;;;;21.50;62.00;;;;;;6045876;23;19919;-95
2023/06/19 03:28:50;;;;;;;;;;;21.20;61.70;;;;;;6071431;23;19952;-95
2023/06/19 03:31:16;;;;;;;;;;;21.20;61.70;;;;;;6071682;23;19906;-95
2023/06/19 03:33:45;;;;;;;;;;;21.20;61.80;;;;;;6071282;23;19960;-94
2023/06/19 03:36:11;;;;;;;;;;;21.20;62.50;;;;;;6072087;23;19909;-96
2023/06/19 03:38:39;;;;;;;;;;;21.20;61.70;;;;;;6046213;23;19909;-96
2023/06/19 03:41:08;;;;;;;;;;;21.20;61.70;;;;;;6047425;23;19919;-96
2023/06/19 03:43:46;;;;;;;;;;;21.20;61.80;;;;;;6071273;23;19912;-96
2023/06/19 03:46:14;;;;;;;;;;;21.20;61.80;;;;;;6071906;23;19984;-92
2023/06/19 03:48:43;;;;;;;;;;;21.20;62.00;;;;;;6071384;23;19917;-96
2023/06/19 03:51:09;;;;;;;;;;;21.20;62.10;;;;;;6071221;23;19905;-95
2023/06/19 03:53:34;;;;;;;;;;;21.20;62.20;;;;;;6071236;23;19917;-96
2023/06/19 03:56:00;;;;;;;;;;;21.20;62.20;;;;;;6068240;23;19910;-96
2023/06/19 03:58:29;;;;;;;;;;;21.20;62.20;;;;;;6071063;23;19905;-96
2023/06/19 04:01:01;;;;;;;;;;;21.20;62.40;;;;;;6081606;23;19941;-95
2023/06/19 04:03:27;;;;;;;;;;;21.20;62.50;;;;;;6094840;23;19976;-96
2023/06/19 04:06:05;;;;;;;;;;;21.20;62.50;;;;;;6095735;23;19913;-96
2023/06/19 04:08:37;;;;;;;;;;;21.20;62.60;;;;;;6096026;23;19909;-96
2023/06/19 04:11:09;;;;;;;;;;;21.20;62.70;;;;;;6095314;23;19905;-96
2023/06/19 04:13:34;;;;;;;;;;;21.20;62.70;;;;;;6069919;23;19910;-96
2023/06/19 04:16:09;;;;;;;;;;;21.20;62.70;;;;;;6046113;23;20378;-96
2023/06/19 04:18:35;;;;;;;;;;;21.20;62.80;;;;;;6017319;23;19916;-96
2023/06/19 04:21:16;;;;;;;;;;;21.20;62.70;;;;;;6045680;23;19913;-96
2023/06/19 04:23:42;;;;;;;;;;;21.20;62.80;;;;;;6069800;23;20343;-96
2023/06/19 04:26:08;;;;;;;;;;;21.20;62.80;;;;;;6070651;23;19911;-95
2023/06/19 04:29:06;;;;;;;;;;;21.20;63.00;;;;;;6069439;23;19915;-96
2023/06/19 04:31:47;;;;;;;;;;;21.20;63.20;;;;;;6069270;23;20415;-96
2023/06/19 04:34:35;;;;;;;;;;;21.20;63.10;;;;;;6046650;23;20302;-96
2023/06/19 04:37:05;;;;;;;;;;;21.10;63.10;;;;;;6070283;23;19972;-96
2023/06/19 04:39:31;;;;;;;;;;;21.20;63.30;;;;;;6045356;23;19917;-96
2023/06/19 04:42:23;;;;;;;;;;;21.20;63.20;;;;;;6069549;23;20367;-95
2023/06/19 04:45:09;;;;;;;;;;;21.20;64.10;;;;;;6046323;23;19996;-94
2023/06/19 04:47:35;;;;;;;;;;;21.20;63.80;;;;;;6069652;23;19921;-95
2023/06/19 04:50:00;;;;;;;;;;;21.20;64.10;;;;;;6070200;23;20264;-94
2023/06/19 04:55:38;;;;;;;;;;;21.20;63.50;;;;;;6008144;23;19910;-96
2023/06/19 04:58:15;;;;;;;;;;;21.20;63.70;;;;;;5985299;23;19942;-96
2023/06/19 05:00:43;;;;;;;;;;;21.20;63.20;;;;;;5983603;23;20009;-95
2023/06/19 05:03:13;;;;;;;;;;;21.20;63.30;;;;;;5984330;23;19911;-95
2023/06/19 05:05:45;;;;;;;;;;;21.20;63.80;;;;;;5984783;23;19962;-93
2023/06/19 05:08:15;;;;;;;;;;;21.20;64.10;;;;;;5985499;23;19910;-95
2023/06/19 05:10:41;;;;;;;;;;;21.20;64.30;;;;;;5985317;23;19915;-95
2023/06/19 05:13:06;;;;;;;;;;;21.10;64.30;;;;;;5987796;23;19931;-95
2023/06/19 05:15:32;;;;;;;;;;;21.10;64.30;;;;;;5987894;23;20316;-96
2023/06/19 05:18:10;;;;;;;;;;;21.20;64.20;;;;;;5988822;23;19934;-95
2023/06/19 05:20:38;;;;;;;;;;;21.20;64.30;;;;;;5987451;23;20351;-94
2023/06/19 05:23:04;;;;;;;;;;;21.20;64.20;;;;;;5987271;23;19906;-94
2023/06/19 05:25:39;;;;;;;;;;;21.20;64.60;;;;;;5986796;23;19952;-96
2023/06/19 05:28:05;;;;;;;;;;;21.20;65.00;;;;;;5986911;23;19914;-94
2023/06/19 05:30:39;;;;;;;;;;;21.10;64.80;;;;;;5986187;23;20397;-93
2023/06/19 05:33:15;;;;;;;;;;;21.10;65.00;;;;;;6073820;23;19948;-94
2023/06/19 05:35:53;;;;;;;;;;;21.20;64.90;;;;;;6072564;23;19909;-94
2023/06/19 05:38:25;;;;;;;;;;;21.10;64.60;;;;;;6096877;23;19905;-94
2023/06/19 05:41:01;;;;;;;;;;;21.20;64.40;;;;;;6073215;23;20088;-95
2023/06/19 05:43:27;;;;;;;;;;;21.20;64.40;;;;;;6096459;23;19906;-93
2023/06/19 05:45:58;;;;;;;;;;;21.20;64.90;;;;;;6096012;23;19932;-94
2023/06/19 05:48:24;;;;;;;;;;;21.10;64.80;;;;;;6096511;23;19913;-93
2023/06/19 05:54:03;;;;;;;;;;;21.10;65.00;;;;;;6082430;23;19905;-96
2023/06/19 05:56:50;;;;;;;;;;;21.20;64.90;;;;;;6096393;23;19943;-94
2023/06/19 05:59:23;;;;;;;;;;;21.20;65.20;;;;;;6093751;23;19905;-95
2023/06/19 06:01:56;;;;;;;;;;;21.20;65.30;;;;;;6097163;23;19932;-95
2023/06/19 06:04:22;;;;;;;;;;;21.10;65.80;;;;;;6096800;23;19929;-95
2023/06/19 06:07:10;;;;;;;;;;;21.20;65.60;;;;;;6095416;23;19917;-94
2023/06/19 06:09:36;;;;;;;;;;;21.20;65.90;;;;;;6094386;23;19921;-94
2023/06/19 06:12:30;;;;;;;;;;;21.20;66.00;;;;;;6096387;23;20268;-94
2023/06/19 06:14:56;;;;;;;;;;;21.20;65.70;;;;;;6096515;23;19961;-95
2023/06/19 06:17:22;;;;;;;;;;;21.20;66.10;;;;;;6072244;23;20375;-94
2023/06/19 06:19:48;;;;;;;;;;;21.10;66.00;;;;;;6096474;23;19905;-94
2023/06/19 06:22:13;;;;;;;;;;;21.10;65.90;;;;;;6072740;23;19916;-94
2023/06/19 06:24:42;;;;;;;;;;;21.10;66.40;;;;;;6096235;23;19905;-93
2023/06/19 06:27:08;;;;;;;;;;;21.20;66.10;;;;;;6096208;23;19909;-94
2023/06/19 06:29:36;;;;;;;;;;;21.20;66.20;;;;;;6072543;23;20342;-95
2023/06/19 06:32:12;;;;;;;;;;;21.20;66.40;;;;;;6071967;23;20327;-95
2023/06/19 06:34:48;;;;;;;;;;;21.10;66.40;;;;;;6073396;23;19909;-94
2023/06/19 06:37:16;;;;;;;;;;;21.20;66.30;;;;;;6072176;23;20308;-94
2023/06/19 06:40:04;;;;;;;;;;;21.10;66.20;;;;;;6095928;23;19905;-94
2023/06/19 06:42:30;;;;;;;;;;;21.20;66.90;;;;;;6096997;23;19916;-94
2023/06/19 06:44:56;;;;;;;;;;;21.10;66.90;;;;;;6096981;23;19984;-95
2023/06/19 06:47:42;;;;;;;;;;;21.10;66.70;;;;;;6097301;23;19913;-95
2023/06/19 06:50:09;;;;;;;;;;;21.20;67.40;;;;;;6096945;23;19906;-94
2023/06/19 06:52:41;;;;;;;;;;;21.20;66.90;;;;;;6097643;23;19996;-95
2023/06/19 06:55:07;;;;;;;;;;;21.10;66.70;;;;;;6073308;23;19909;-95
2023/06/19 06:57:33;;;;;;;;;;;21.10;66.50;;;;;;6096348;23;19958;-94
2023/06/19 06:59:59;;;;;;;;;;;21.20;66.70;;;;;;6095948;23;19933;-96
2023/06/19 07:02:34;;;;;;;;;;;21.20;66.70;;;;;;6094616;23;19906;-96
2023/06/19 07:05:09;;;;;;;;;;;21.20;67.20;;;;;;6070412;23;20626;-96
2023/06/19 07:07:35;;;;;;;;;;;21.20;67.10;;;;;;6072664;23;19922;-92
2023/06/19 07:10:13;;;;;;;;;;;21.20;67.20;;;;;;6071374;23;19988;-93
2023/06/19 07:12:51;;;;;;;;;;;21.40;67.50;;;;;;6071132;23;19916;-96
2023/06/19 07:15:16;;;;;;;;;;;21.20;67.10;;;;;;6094813;23;19905;-95
2023/06/19 07:17:44;;;;;;;;;;;21.20;67.20;;;;;;6071156;23;19961;-95
2023/06/19 07:20:17;;;;;;;;;;;21.20;67.40;;;;;;6071320;23;19913;-96
2023/06/19 07:22:43;;;;;;;;;;;21.30;67.40;;;;;;6070883;23;19917;-96
2023/06/19 07:25:12;;;;;;;;;;;21.20;67.30;;;;;;6071375;23;19913;-95
2023/06/19 07:27:44;;;;;;;;;;;21.30;67.50;;;;;;6094626;23;19989;-95
2023/06/19 07:30:13;;;;;;;;;;;21.30;67.30;;;;;;6095175;23;20426;-96
2023/06/19 07:32:45;;;;;;;;;;;21.30;67.60;;;;;;6095049;23;20339;-95
2023/06/19 07:35:24;;;;;;;;;;;21.50;67.90;;;;;;6094917;23;20344;-94
2023/06/19 07:37:59;;;;;;;;;;;21.30;67.80;;;;;;6090710;23;19988;-95
2023/06/19 07:40:25;;;;;;;;;;;21.30;67.70;;;;;;6094996;23;19927;-95
2023/06/19 07:43:03;;;;;;;;;;;21.30;67.50;;;;;;6095330;23;19940;-96
2023/06/19 07:45:28;;;;;;;;;;;21.50;67.60;;;;;;6094685;23;19905;-94
2023/06/19 07:48:01;;;;;;;;;;;21.30;67.30;;;;;;6094311;23;19932;-93
2023/06/19 07:50:32;;;;;;;;;;;21.30;67.30;;;;;;6069942;23;19909;-96
2023/06/19 07:52:58;;;;;;;;;;;21.30;67.30;;;;;;6095710;23;19937;-94
2023/06/19 07:55:24;;;;;;;;;;;21.30;67.40;;;;;;6071216;23;19909;-94
2023/06/19 07:58:10;;;;;;;;;;;21.30;67.40;;;;;;6095005;23;19905;-92
2023/06/19 08:00:35;;;;;;;;;;;21.30;67.50;;;;;;6093669;23;19909;-94
2023/06/19 08:03:01;;;;;;;;;;;21.30;67.50;;;;;;6095648;23;19929;-96
2023/06/19 08:05:36;;;;;;;;;;;21.30;67.40;;;;;;6097274;23;19912;-96
2023/06/19 08:08:10;;;;;;;;;;;21.30;67.60;;;;;;6099003;23;20020;-95
2023/06/19 08:10:36;;;;;;;;;;;21.30;67.40;;;;;;6100242;23;19913;-96
2023/06/19 08:13:05;;;;;;;;;;;21.30;67.50;;;;;;6075950;23;19960;-96
2023/06/19 08:15:37;;;;;;;;;;;21.30;67.60;;;;;;6075507;23;20216;-96
2023/06/19 08:18:34;;;;;;;;;;;21.40;67.60;;;;;;6099531;23;19920;-96
2023/06/19 08:20:59;;;;;;;;;;;21.40;67.50;;;;;;6103358;23;19909;-96
2023/06/19 08:23:25;;;;;;;;;;;21.40;67.60;;;;;;6099830;23;19905;-96
2023/06/19 08:26:00;;;;;;;;;;;21.40;67.70;;;;;;6100558;23;19920;-96
2023/06/19 08:31:11;;;;;;;;;;;21.40;68.10;;;;;;6044806;23;19988;-95
2023/06/19 08:33:40;;;;;;;;;;;21.50;68.10;;;;;;6099138;23;19905;-96
2023/06/19 08:36:06;;;;;;;;;;;21.50;68.20;;;;;;6101083;23;19905;-94
2023/06/19 08:38:38;;;;;;;;;;;21.50;68.30;;;;;;6075971;23;20501;-96
2023/06/19 08:41:13;;;;;;;;;;;21.50;68.60;;;;;;6072798;23;19909;-96
2023/06/19 08:43:42;;;;;;;;;;;21.50;68.40;;;;;;6075657;23;19909;-96
2023/06/19 08:46:29;;;;;;;;;;;21.50;68.50;;;;;;6100440;23;19905;-96
2023/06/19 08:49:09;;;;;;;;;;;21.60;68.60;;;;;;6080150;23;20342;-95
2023/06/19 08:51:44;;;;;;;;;;;21.60;69.40;;;;;;6080524;23;20354;-96
2023/06/19 08:54:22;;;;;;;;;;;21.70;68.60;;;;;;6103376;23;19908;-96
2023/06/19 08:56:49;;;;;;;;;;;21.60;68.70;;;;;;6108916;23;19905;-95
2023/06/19 08:59:50;;;;;;;;;;;21.60;68.70;;;;;;6102962;23;19909;-95
2023/06/19 09:02:48;;;;;;;;;;;21.60;68.70;;;;;;6108529;23;19949;-96
2023/06/19 09:05:37;;;;;;;;;;;21.70;69.10;;;;;;5966415;24;19930;-96
2023/06/19 09:08:25;;;;;;;;;;;21.90;69.20;;;;;;5978074;23;19985;-96
2023/06/19 09:11:23;;;;;;;;;;;22.20;69.60;;;;;;5956380;24;20025;-96
2023/06/19 09:14:07;;;;;;;;;;;21.70;69.40;;;;;;5966248;24;19906;-96
2023/06/19 09:16:58;;;;;;;;;;;21.70;69.80;;;;;;5965977;24;19913;-95
2023/06/19 09:19:25;;;;;;;;;;;21.80;69.70;;;;;;5986372;24;19935;-96
2023/06/19 09:21:51;;;;;;;;;;;21.70;69.90;;;;;;5941804;24;19949;-95
2023/06/19 09:24:20;;;;;;;;;;;21.90;70.00;;;;;;5962572;24;20329;-94
2023/06/19 09:27:09;;;;;;;;;;;21.80;70.20;;;;;;5965972;24;19972;-95
2023/06/19 09:30:03;;;;;;;;;;;21.90;70.20;;;;;;5946383;24;20528;-96
2023/06/19 09:35:42;;;;;;;;;;;22.40;70.70;;;;;;5991861;24;19914;-96
2023/06/19 09:38:50;;;;;;;;;;;;;;;;;;;;;
2023/06/19 09:41:26;;;;;;;;;;;22.00;70.60;;;;;;6059067;23;19905;-96
2023/06/19 09:44:26;;;;;;;;;;;22.10;70.70;;;;;;6047979;23;19924;-96
2023/06/19 09:47:17;;;;;;;;;;;22.10;70.80;;;;;;5994109;23;20356;-93
2023/06/19 09:53:18;;;;;;;;;;;22.10;70.80;;;;;;5958872;24;19954;-96
2023/06/19 09:56:24;;;;;;;;;;;22.20;70.70;;;;;;5940317;24;20010;-96
2023/06/19 09:59:09;;;;;;;;;;;22.20;71.10;;;;;;5960215;24;19923;-96
2023/06/19 10:01:38;;;;;;;;;;;22.40;71.10;;;;;;5939008;24;19948;-96
2023/06/19 10:04:12;;;;;;;;;;;22.20;71.00;;;;;;5937291;24;19907;-94
2023/06/19 10:07:16;;;;;;;;;;;22.80;71.50;;;;;;5938713;24;19907;-95
2023/06/19 10:10:07;;;;;;;;;;;22.30;71.30;;;;;;5937958;24;20060;-96
2023/06/19 10:12:47;;;;;;;;;;;22.30;71.70;;;;;;5922499;24;19907;-95
2023/06/19 10:15:32;;;;;;;;;;;22.30;71.60;;;;;;5933769;24;20023;-96
2023/06/19 10:18:07;;;;;;;;;;;22.40;71.60;;;;;;5936706;24;19964;-96
2023/06/19 10:21:07;;;;;;;;;;;22.40;71.60;;;;;;5911610;24;19910;-96
2023/06/19 12:51:08;;;;;;;;;;;22.40;71.80;;;;;;6095833;23;19904;-84
2023/06/19 12:53:33;;;;;;;;;;;22.40;72.30;;;;;;6151910;23;19909;-84
2023/06/19 12:55:59;;;;;;;;;;;22.50;72.80;;;;;;6152901;23;19943;-84
2023/06/19 12:58:25;;;;;;;;;;;22.60;72.70;;;;;;6151150;23;19994;-86
2023/06/19 13:59:08;;;;;;;;;;;22.20;71.20;;;;;;6125787;23;19927;-96
2023/06/19 14:20:57;;;;;;;;;;;22.20;70.80;;;;;;6058705;23;19946;-96
2023/06/19 14:23:43;;;;;;;;;;;22.20;70.70;;;;;;6030416;23;19914;-96
2023/06/19 14:26:12;;;;;;;;;;;22.20;70.70;;;;;;6029109;23;19918;-96
2023/06/19 14:29:00;;;;;;;;;;;22.40;70.70;;;;;;6032051;23;19945;-96
2023/06/19 14:39:52;;;;;;;;;;;22.20;70.40;;;;;;6136185;23;19920;-96
2023/06/19 14:48:40;;;;;;;;;;;22.20;70.20;;;;;;6168304;23;19919;-96
2023/06/19 14:54:20;;;;;;;;;;;22.20;70.20;;;;;;6140281;23;19912;-96
2023/06/19 14:56:55;;;;;;;;;;;22.20;70.10;;;;;;6112249;23;19909;-96
2023/06/19 14:59:23;;;;;;;;;;;22.20;70.10;;;;;;6107459;23;19912;-90
2023/06/19 15:01:48;;;;;;;;;;;22.20;70.00;;;;;;6098574;23;19909;-91
2023/06/19 15:04:14;;;;;;;;;;;22.40;69.10;;;;;;6076292;23;19936;-90
2023/06/19 15:06:40;;;;;;;;;;;22.50;68.40;;;;;;6099553;23;20346;-90
2023/06/19 15:09:06;;;;;;;;;;;22.60;69.80;;;;;;6075854;23;19992;-91
2023/06/19 15:11:42;;;;;;;;;;;22.60;68.70;;;;;;6074675;23;19933;-92
2023/06/19 15:14:08;;;;;;;;;;;22.70;68.60;;;;;;6077168;23;19997;-91
2023/06/19 15:16:33;;;;;;;;;;;22.60;67.80;;;;;;6099151;23;19912;-91
2023/06/19 15:18:59;;;;;;;;;;;22.60;67.70;;;;;;6074996;23;19909;-93
2023/06/19 15:21:45;;;;;;;;;;;22.70;67.70;;;;;;6099225;23;20311;-92
2023/06/19 15:24:10;;;;;;;;;;;22.70;68.00;;;;;;6099015;23;19912;-91
2023/06/19 15:26:36;;;;;;;;;;;22.70;68.50;;;;;;6098659;23;20315;-90
2023/06/19 15:29:24;;;;;;;;;;;22.80;69.60;;;;;;6098173;23;20357;-91
2023/06/19 15:31:49;;;;;;;;;;;22.80;69.10;;;;;;6098542;23;19909;-92
2023/06/19 15:34:15;;;;;;;;;;;22.80;68.60;;;;;;6075307;23;19909;-92
2023/06/19 15:36:46;;;;;;;;;;;22.80;68.20;;;;;;6074544;23;20029;-92
2023/06/19 15:39:32;;;;;;;;;;;22.90;69.00;;;;;;6130469;23;19912;-91
2023/06/19 15:41:58;;;;;;;;;;;22.80;68.40;;;;;;6152661;23;19905;-92
2023/06/19 15:44:23;;;;;;;;;;;22.70;67.70;;;;;;6130004;23;20322;-92
2023/06/19 15:46:49;;;;;;;;;;;22.80;67.50;;;;;;6129250;23;19909;-91
2023/06/19 15:49:15;;;;;;;;;;;22.80;69.40;;;;;;6129232;23;19991;-91
2023/06/19 15:51:43;;;;;;;;;;;22.90;68.50;;;;;;6129673;23;19999;-92
2023/06/19 15:54:09;;;;;;;;;;;22.80;68.10;;;;;;6154748;23;19904;-92
2023/06/19 15:56:39;;;;;;;;;;;22.80;68.10;;;;;;6125638;23;19909;-93
2023/06/19 15:59:05;;;;;;;;;;;22.80;67.80;;;;;;6152003;23;20283;-93
2023/06/19 16:01:31;;;;;;;;;;;22.80;67.60;;;;;;6130502;23;19915;-96
2023/06/19 16:04:00;;;;;;;;;;;22.80;67.10;;;;;;6130190;23;19915;-94
2023/06/19 16:06:36;;;;;;;;;;;22.80;67.60;;;;;;6129538;23;20345;-90
2023/06/19 16:09:22;;;;;;;;;;;22.80;67.20;;;;;;6153857;23;19909;-93
2023/06/19 16:11:51;;;;;;;;;;;22.80;67.20;;;;;;6153801;23;20376;-93
2023/06/19 16:14:39;;;;;;;;;;;22.80;66.90;;;;;;6129906;23;19963;-91
2023/06/19 16:17:07;;;;;;;;;;;22.80;66.60;;;;;;6155347;23;20307;-91
2023/06/19 16:19:34;;;;;;;;;;;22.80;66.70;;;;;;6131083;23;19928;-92
2023/06/19 16:22:20;;;;;;;;;;;22.80;66.70;;;;;;6131110;23;20523;-92
2023/06/19 16:24:45;;;;;;;;;;;22.80;66.40;;;;;;6155389;23;19905;-92
2023/06/19 16:27:11;;;;;;;;;;;22.80;66.90;;;;;;6128990;23;19920;-92
2023/06/19 16:29:57;;;;;;;;;;;22.90;67.60;;;;;;6154195;23;19904;-93
2023/06/19 16:32:22;;;;;;;;;;;22.80;67.50;;;;;;6155772;23;20294;-93
2023/06/19 16:34:51;;;;;;;;;;;22.90;67.70;;;;;;6132098;23;19909;-92
2023/06/19 16:37:17;;;;;;;;;;;22.90;67.80;;;;;;6155589;23;19909;-93
2023/06/19 16:39:44;;;;;;;;;;;22.90;67.90;;;;;;6153824;23;19916;-94
2023/06/19 16:42:10;;;;;;;;;;;22.90;67.10;;;;;;6131236;23;19924;-92
2023/06/19 16:44:45;;;;;;;;;;;22.80;67.30;;;;;;6130750;23;19909;-92
2023/06/19 16:47:10;;;;;;;;;;;22.80;67.60;;;;;;6130688;23;19920;-92
2023/06/19 16:49:39;;;;;;;;;;;22.80;67.40;;;;;;6155391;23;19905;-93
2023/06/19 16:52:28;;;;;;;;;;;22.90;67.60;;;;;;6154826;23;19931;-93
2023/06/19 16:55:16;;;;;;;;;;;22.90;68.90;;;;;;6154798;23;19905;-93
2023/06/19 16:58:04;;;;;;;;;;;22.80;68.80;;;;;;6154433;23;19904;-93
2023/06/19 17:00:30;;;;;;;;;;;22.90;69.00;;;;;;6151978;23;19911;-93
2023/06/19 17:03:00;;;;;;;;;;;22.90;69.40;;;;;;6129724;23;19908;-92
2023/06/19 17:05:28;;;;;;;;;;;22.90;69.40;;;;;;6130596;23;19915;-93
2023/06/19 17:08:17;;;;;;;;;;;22.90;69.50;;;;;;6130516;23;19916;-92
2023/06/19 17:10:51;;;;;;;;;;;22.80;69.60;;;;;;6153340;23;19958;-93
2023/06/19 17:13:20;;;;;;;;;;;22.80;69.70;;;;;;6155820;23;20230;-92
2023/06/19 17:15:52;;;;;;;;;;;22.80;69.70;;;;;;6156112;23;19908;-93
2023/06/19 17:18:37;;;;;;;;;;;22.80;69.50;;;;;;6130782;23;20369;-93
2023/06/19 17:21:25;;;;;;;;;;;22.80;69.80;;;;;;6155791;23;20393;-95
2023/06/19 17:23:53;;;;;;;;;;;22.80;69.90;;;;;;6156122;23;19905;-93
2023/06/19 17:26:57;;;;;;;;;;;22.80;70.50;;;;;;6131824;23;19916;-94
2023/06/19 17:29:38;;;;;;;;;;;22.70;70.50;;;;;;6155654;23;19912;-92
2023/06/19 17:32:26;;;;;;;;;;;22.90;70.80;;;;;;6128098;23;19915;-94
2023/06/19 17:34:54;;;;;;;;;;;22.80;70.80;;;;;;6155268;23;19905;-93
2023/06/19 17:37:39;;;;;;;;;;;22.90;70.80;;;;;;6131522;23;19916;-94
2023/06/19 17:40:25;;;;;;;;;;;22.90;70.80;;;;;;6154919;23;19912;-93
2023/06/19 17:42:50;;;;;;;;;;;22.90;71.00;;;;;;6154261;23;19904;-94
2023/06/19 17:45:16;;;;;;;;;;;22.80;71.00;;;;;;6130326;23;20310;-95
2023/06/19 17:47:48;;;;;;;;;;;22.80;71.00;;;;;;6155139;23;19908;-93
2023/06/19 17:50:27;;;;;;;;;;;22.90;71.20;;;;;;6154705;23;19908;-93
2023/06/19 17:53:41;;;;;;;;;;;22.90;71.30;;;;;;6137119;23;19909;-93
2023/06/19 17:56:09;;;;;;;;;;;22.90;71.40;;;;;;6042797;23;19906;-94
2023/06/19 17:58:41;;;;;;;;;;;22.90;71.90;;;;;;6042032;23;19910;-92
2023/06/19 18:01:06;;;;;;;;;;;22.90;72.40;;;;;;6019737;23;19961;-93
2023/06/19 18:03:32;;;;;;;;;;;22.80;72.60;;;;;;6041800;23;19929;-92
2023/06/19 18:05:58;;;;;;;;;;;22.90;72.80;;;;;;6018800;23;19936;-92
2023/06/19 18:08:24;;;;;;;;;;;22.90;73.40;;;;;;6019224;23;19985;-93
2023/06/19 18:10:52;;;;;;;;;;;22.90;73.70;;;;;;6018960;23;19910;-92
2023/06/19 18:13:27;;;;;;;;;;;22.90;74.00;;;;;;6048743;23;19906;-94
2023/06/19 18:19:38;;;;;;;;;;;22.80;73.60;;;;;;6021056;23;19942;-96
2023/06/19 18:22:38;;;;;;;;;;;22.70;73.60;;;;;;5995193;23;20391;-96
2023/06/19 18:25:16;;;;;;;;;;;22.80;73.70;;;;;;5997984;23;20008;-96
2023/06/19 18:27:53;;;;;;;;;;;22.70;73.50;;;;;;5994587;23;19938;-95
2023/06/19 18:30:30;;;;;;;;;;;22.60;73.40;;;;;;5999826;23;19914;-96
2023/06/19 18:33:08;;;;;;;;;;;22.60;73.30;;;;;;6054645;23;19906;-96
2023/06/19 18:35:56;;;;;;;;;;;22.60;73.30;;;;;;6050466;23;20055;-96
2023/06/19 18:38:28;;;;;;;;;;;22.60;73.20;;;;;;6052340;23;19937;-94
2023/06/19 18:44:16;;;;;;;;;;;22.60;73.00;;;;;;5962914;24;19915;-95
2023/06/19 18:46:48;;;;;;;;;;;22.60;72.90;;;;;;5931491;24;20397;-94
2023/06/19 18:49:17;;;;;;;;;;;22.60;72.90;;;;;;5931137;24;19911;-96
2023/06/19 18:51:43;;;;;;;;;;;22.60;72.80;;;;;;5930717;24;19942;-96
2023/06/19 18:54:35;;;;;;;;;;;22.60;72.90;;;;;;5931726;24;20320;-95
2023/06/19 18:57:01;;;;;;;;;;;22.50;72.70;;;;;;6014699;23;19910;-95
2023/06/19 18:59:55;;;;;;;;;;;22.50;72.60;;;;;;6039952;23;19953;-96
2023/06/19 19:02:36;;;;;;;;;;;22.50;72.50;;;;;;6038116;23;20320;-96
2023/06/19 19:05:35;;;;;;;;;;;22.50;72.50;;;;;;6039157;23;19906;-96
2023/06/19 19:08:22;;;;;;;;;;;22.50;72.50;;;;;;6005746;23;19917;-95
2023/06/19 19:11:11;;;;;;;;;;;22.50;72.30;;;;;;6038917;23;19906;-95
2023/06/19 19:13:37;;;;;;;;;;;22.50;72.20;;;;;;6038567;23;19937;-95
2023/06/19 19:16:08;;;;;;;;;;;22.50;72.20;;;;;;6014665;23;19914;-95
2023/06/19 19:22:09;;;;;;;;;;;22.40;71.90;;;;;;6002413;23;19950;-95
2023/06/19 19:24:45;;;;;;;;;;;22.50;72.00;;;;;;6010967;23;19962;-95
2023/06/19 19:27:11;;;;;;;;;;;22.40;71.90;;;;;;6011766;23;19993;-96
2023/06/19 19:29:55;;;;;;;;;;;22.40;71.90;;;;;;6011817;23;19910;-96
2023/06/19 19:32:21;;;;;;;;;;;22.40;71.90;;;;;;6011389;23;19933;-94
2023/06/19 19:35:07;;;;;;;;;;;22.40;71.90;;;;;;6010532;23;19913;-95
2023/06/19 19:41:13;;;;;;;;;;;22.40;71.70;;;;;;6003265;23;19914;-95